createdAt,value
2022-08-04T03:25:36.263Z,0.00
2022-08-04T03:26:36.248Z,0.00
2022-08-04T03:27:36.237Z,0.00
2022-08-04T03:28:36.228Z,0.00
2022-08-04T03:35:36.156Z,0.00
2022-08-04T03:36:36.145Z,0.00
2022-08-04T03:42:03.074Z,0.00
2022-08-04T03:42:37.101Z,0.00
2022-08-04T03:43:57.113Z,0.00
2022-08-04T03:44:37.082Z,0.00
2022-08-04T03:45:36.055Z,0.00
2022-08-04T03:46:36.043Z,0.00
2022-08-04T03:47:36.027Z,0.00
2022-08-04T03:48:37.039Z,0.00
2022-08-04T03:49:36.012Z,0.00
2022-08-04T03:50:40.957Z,0.00
2022-08-04T03:51:36.510Z,0.00
2022-08-04T03:52:35.977Z,0.00
2022-08-04T03:53:35.967Z,0.00
2022-08-04T03:54:35.959Z,0.00
2022-08-04T03:55:35.947Z,0.00
2022-08-04T03:56:35.949Z,0.00
2022-08-04T03:57:35.932Z,0.00
2022-08-04T03:58:35.915Z,0.00
2022-08-04T03:59:35.912Z,0.00
2022-08-04T04:00:35.894Z,0.00
2022-08-04T04:02:01.231Z,0.00
2022-08-04T04:02:36.965Z,0.00
2022-08-04T04:03:35.863Z,0.00
2022-08-04T04:04:35.852Z,0.00
2022-08-04T04:05:43.176Z,0.00
2022-08-04T04:06:38.498Z,0.00
2022-08-04T04:07:36.772Z,0.00
2022-08-04T04:08:35.810Z,0.00
2022-08-04T04:09:57.641Z,0.00
2022-08-04T04:10:35.790Z,0.00
2022-08-04T04:11:35.778Z,0.00
2022-08-04T04:12:36.790Z,5.62
2022-08-04T04:13:35.755Z,5.62
2022-08-04T04:14:35.746Z,5.62
2022-08-04T04:15:35.833Z,5.62
2022-08-04T04:16:35.726Z,5.62
2022-08-04T04:17:35.714Z,5.62
2022-08-04T04:18:35.704Z,5.62
2022-08-04T04:19:35.697Z,5.62
2022-08-04T04:20:35.682Z,5.62
2022-08-04T04:21:35.676Z,11.25
2022-08-04T04:22:38.504Z,11.25
2022-08-04T04:23:35.653Z,11.25
2022-08-04T04:24:35.642Z,11.25
2022-08-04T04:25:35.635Z,11.25
2022-08-04T04:26:35.620Z,11.25
2022-08-04T04:27:35.611Z,11.25
2022-08-04T04:28:46.598Z,11.25
2022-08-04T04:29:35.591Z,16.87
2022-08-04T04:30:35.581Z,16.87
2022-08-04T04:31:35.571Z,16.87
2022-08-04T04:32:35.556Z,16.87
2022-08-04T04:33:35.552Z,16.87
2022-08-04T04:34:35.539Z,16.87
2022-08-04T04:35:35.530Z,16.87
2022-08-04T04:36:35.520Z,22.50
2022-08-04T04:37:35.506Z,22.50
2022-08-04T04:38:35.495Z,22.50
2022-08-04T04:39:35.568Z,22.50
2022-08-04T04:40:35.479Z,22.50
2022-08-04T04:41:35.462Z,22.50
2022-08-04T04:42:35.459Z,28.12
2022-08-04T04:43:52.244Z,28.12
2022-08-04T04:44:36.452Z,28.12
2022-08-04T04:45:35.422Z,28.12
2022-08-04T04:46:35.416Z,28.12
2022-08-04T04:48:06.963Z,28.12
2022-08-04T04:48:35.391Z,28.12
2022-08-04T04:49:35.382Z,33.75
2022-08-04T04:50:36.998Z,33.75
2022-08-04T04:51:35.359Z,33.75
2022-08-04T04:52:35.352Z,33.75
2022-08-04T04:53:35.342Z,33.75
2022-08-04T04:54:35.330Z,33.75
2022-08-04T04:55:35.320Z,33.75
2022-08-04T04:56:35.339Z,39.37
2022-08-04T04:57:54.789Z,39.37
2022-08-04T04:58:35.289Z,39.37
2022-08-04T04:59:35.478Z,39.37
2022-08-04T05:00:35.272Z,39.37
2022-08-04T05:01:35.261Z,39.37
2022-08-04T05:02:35.251Z,45.00
2022-08-04T05:03:35.239Z,45.00
2022-08-04T05:04:35.230Z,45.00
2022-08-04T05:05:35.219Z,45.00
2022-08-04T05:06:35.213Z,45.00
2022-08-04T05:07:35.349Z,45.00
2022-08-04T05:08:45.027Z,50.62
2022-08-04T05:09:36.200Z,50.62
2022-08-04T05:10:35.171Z,50.62
2022-08-04T05:11:35.158Z,50.62
2022-08-04T05:14:30.717Z,50.62
2022-08-04T05:14:38.678Z,50.62
2022-08-04T05:14:41.618Z,56.25
2022-08-04T05:15:35.220Z,56.25
2022-08-04T05:16:35.108Z,56.25
2022-08-04T05:17:35.099Z,56.25
2022-08-04T05:18:35.090Z,56.25
2022-08-04T05:19:35.083Z,56.25
2022-08-04T05:20:35.168Z,61.87
2022-08-04T05:21:35.057Z,61.87
2022-08-04T05:22:35.052Z,61.87
2022-08-04T05:23:35.041Z,61.87
2022-08-04T05:24:35.315Z,61.87
2022-08-04T05:25:35.017Z,61.87
2022-08-04T05:26:35.009Z,61.87
2022-08-04T05:27:39.449Z,67.50
2022-08-04T05:28:34.986Z,67.50
2022-08-04T05:29:35.125Z,67.50
2022-08-04T05:30:34.968Z,67.50
2022-08-04T05:31:34.957Z,67.50
2022-08-04T05:32:34.944Z,67.50
2022-08-04T05:33:35.039Z,67.50
2022-08-04T05:34:34.922Z,73.12
2022-08-04T05:35:47.837Z,73.12
2022-08-04T05:36:41.465Z,73.12
2022-08-04T05:37:35.914Z,73.12
2022-08-04T05:38:34.883Z,73.12
2022-08-04T05:39:34.906Z,73.12
2022-08-04T05:40:34.867Z,73.12
2022-08-04T05:41:45.791Z,78.75
2022-08-04T05:42:35.864Z,78.75
2022-08-04T05:43:34.829Z,78.75
2022-08-04T05:44:34.869Z,78.75
2022-08-04T05:45:39.499Z,78.75
2022-08-04T05:46:34.798Z,78.75
2022-08-04T05:47:34.939Z,78.75
2022-08-04T05:48:34.778Z,78.75
2022-08-04T05:49:34.765Z,78.75
2022-08-04T05:50:34.758Z,78.75
2022-08-04T05:51:34.743Z,78.75
2022-08-04T05:52:34.740Z,78.75
2022-08-04T05:53:34.726Z,78.75
2022-08-04T05:54:34.714Z,84.37
2022-08-04T05:55:58.433Z,84.37
2022-08-04T05:56:34.696Z,84.37
2022-08-04T05:57:34.683Z,84.37
2022-08-04T05:58:34.677Z,84.37
2022-08-04T05:59:34.663Z,84.37
2022-08-04T06:00:41.375Z,84.37
2022-08-04T06:01:56.069Z,84.37
2022-08-04T06:02:34.634Z,90.00
2022-08-04T06:03:34.620Z,90.00
2022-08-04T06:04:34.614Z,90.00
2022-08-04T06:05:34.600Z,84.37
2022-08-04T06:06:34.593Z,84.37
2022-08-04T06:07:34.587Z,84.37
2022-08-04T06:08:34.773Z,84.37
2022-08-04T06:09:34.566Z,90.00
2022-08-04T06:10:34.549Z,90.00
2022-08-04T06:12:00.699Z,90.00
2022-08-04T06:12:35.553Z,90.00
2022-08-04T06:13:48.456Z,90.00
2022-08-04T06:14:34.713Z,95.62
2022-08-04T06:15:34.499Z,95.62
2022-08-04T06:16:34.590Z,95.62
2022-08-04T06:19:57.269Z,95.62
2022-08-04T06:19:59.087Z,95.62
2022-08-04T06:20:03.737Z,95.62
2022-08-04T06:20:35.470Z,95.62
2022-08-04T06:21:34.442Z,95.62
2022-08-04T06:22:34.432Z,95.62
2022-08-04T06:23:34.421Z,95.62
2022-08-04T06:24:35.431Z,95.62
2022-08-04T06:25:34.400Z,101.25
2022-08-04T06:26:34.393Z,101.25
2022-08-04T06:27:34.378Z,101.25
2022-08-04T06:28:35.217Z,101.25
2022-08-04T06:29:34.460Z,101.25
2022-08-04T06:30:34.347Z,101.25
2022-08-04T06:32:27.056Z,101.25
2022-08-04T06:32:38.744Z,101.25
2022-08-04T06:33:54.743Z,101.25
2022-08-04T06:34:35.326Z,106.87
2022-08-04T06:35:34.463Z,106.87
2022-08-04T06:36:34.289Z,106.87
2022-08-04T06:37:42.111Z,106.87
2022-08-04T06:38:35.287Z,106.87
2022-08-04T06:39:34.327Z,106.87
2022-08-04T06:40:34.814Z,106.87
2022-08-04T06:41:34.238Z,106.87
2022-08-04T06:42:34.226Z,106.87
2022-08-04T06:43:42.961Z,112.50
2022-08-04T06:44:34.207Z,112.50
2022-08-04T06:45:34.237Z,106.87
2022-08-04T06:46:34.184Z,112.50
2022-08-04T06:47:34.173Z,112.50
2022-08-04T06:48:34.165Z,112.50
2022-08-04T06:49:44.179Z,118.12
2022-08-04T06:51:32.823Z,118.12
2022-08-04T06:51:39.115Z,118.12
2022-08-04T06:52:35.143Z,118.12
2022-08-04T06:53:34.110Z,123.75
2022-08-04T06:54:34.104Z,123.75
2022-08-04T06:55:34.091Z,129.37
2022-08-04T06:56:34.083Z,135.00
2022-08-04T06:57:34.072Z,140.62
2022-08-04T06:58:34.062Z,140.62
2022-08-04T06:59:34.050Z,140.62
2022-08-04T07:00:34.042Z,146.25
2022-08-04T07:01:34.128Z,146.25
2022-08-04T07:02:34.024Z,146.25
2022-08-04T07:03:34.013Z,146.25
2022-08-04T07:04:34.004Z,146.25
2022-08-04T07:05:33.988Z,146.25
2022-08-04T07:06:33.980Z,146.25
2022-08-04T07:07:37.172Z,151.87
2022-08-04T07:08:34.980Z,151.87
2022-08-04T07:09:33.952Z,151.87
2022-08-04T07:10:33.941Z,151.87
2022-08-04T07:11:39.206Z,151.87
2022-08-04T07:12:34.941Z,151.87
2022-08-04T07:13:33.914Z,151.87
2022-08-04T07:14:33.901Z,157.50
2022-08-04T07:15:33.900Z,157.50
2022-08-04T07:16:33.880Z,157.50
2022-08-04T07:17:34.808Z,157.50
2022-08-04T07:18:33.866Z,157.50
2022-08-04T07:19:33.855Z,157.50
2022-08-04T07:20:36.119Z,157.50
2022-08-04T07:21:33.833Z,157.50
2022-08-04T07:22:33.828Z,157.50
2022-08-04T07:23:33.813Z,163.12
2022-08-04T07:24:33.799Z,163.12
2022-08-04T07:26:00.644Z,163.12
2022-08-04T07:26:34.801Z,163.12
2022-08-04T07:27:48.235Z,163.12
2022-08-04T07:28:34.782Z,163.12
2022-08-04T07:29:33.746Z,168.75
2022-08-04T07:30:33.739Z,168.75
2022-08-04T07:31:35.886Z,168.75
2022-08-04T07:32:33.718Z,168.75
2022-08-04T07:33:33.706Z,168.75
2022-08-04T07:34:33.701Z,174.37
2022-08-04T07:36:09.080Z,174.37
2022-08-04T07:36:42.001Z,174.37
2022-08-04T07:37:39.309Z,174.37
2022-08-04T07:38:37.671Z,180.00
2022-08-04T07:39:48.014Z,180.00
2022-08-04T07:40:34.658Z,185.62
2022-08-04T07:41:37.176Z,185.62
2022-08-04T07:42:33.623Z,191.25
2022-08-04T07:43:33.609Z,191.25
2022-08-04T07:44:33.600Z,191.25
2022-08-04T07:45:33.590Z,191.25
2022-08-04T07:46:33.581Z,174.37
2022-08-04T07:47:33.571Z,174.37
2022-08-04T07:48:33.562Z,180.00
2022-08-04T07:49:55.293Z,196.87
2022-08-04T07:50:33.541Z,208.12
2022-08-04T07:51:33.529Z,219.37
2022-08-04T07:52:38.144Z,241.87
2022-08-04T07:53:53.280Z,253.12
2022-08-04T07:54:33.499Z,247.50
2022-08-04T07:55:33.488Z,236.25
2022-08-04T07:56:33.478Z,247.50
2022-08-04T07:57:41.287Z,247.50
2022-08-04T07:58:34.484Z,213.75
2022-08-04T07:59:33.448Z,236.25
2022-08-04T08:00:33.439Z,230.62
2022-08-04T08:01:33.429Z,264.37
2022-08-04T08:02:33.419Z,219.37
2022-08-04T08:03:33.479Z,247.50
2022-08-04T08:04:33.400Z,213.75
2022-08-04T08:05:33.391Z,208.12
2022-08-04T08:06:36.493Z,202.50
2022-08-04T08:07:33.370Z,196.87
2022-08-04T08:08:33.363Z,196.87
2022-08-04T08:09:33.354Z,208.12
2022-08-04T08:10:33.342Z,191.25
2022-08-04T08:12:35.966Z,185.62
2022-08-04T08:12:50.612Z,185.62
2022-08-04T08:13:34.338Z,185.62
2022-08-04T08:14:33.336Z,219.37
2022-08-04T08:15:33.296Z,191.25
2022-08-04T08:16:33.286Z,180.00
2022-08-04T08:17:33.276Z,225.00
2022-08-04T08:18:33.266Z,185.62
2022-08-04T08:19:33.256Z,241.87
2022-08-04T08:20:33.376Z,180.00
2022-08-04T08:21:33.233Z,213.75
2022-08-04T08:22:33.225Z,247.50
2022-08-04T08:23:33.212Z,247.50
2022-08-04T08:24:33.205Z,247.50
2022-08-04T08:25:33.200Z,241.87
2022-08-04T08:26:33.183Z,241.87
2022-08-04T08:27:33.173Z,241.87
2022-08-04T08:28:33.167Z,241.87
2022-08-04T08:29:33.154Z,241.87
2022-08-04T08:30:33.145Z,241.87
2022-08-04T08:31:58.349Z,247.50
2022-08-04T08:32:34.147Z,247.50
2022-08-04T08:33:33.116Z,253.12
2022-08-04T08:34:33.106Z,253.12
2022-08-04T08:35:33.097Z,247.50
2022-08-04T08:36:34.126Z,247.50
2022-08-04T08:37:33.082Z,241.87
2022-08-04T08:38:33.068Z,241.87
2022-08-04T08:39:33.145Z,247.50
2022-08-04T08:40:40.994Z,253.12
2022-08-04T08:41:34.060Z,258.75
2022-08-04T08:42:33.030Z,258.75
2022-08-04T08:44:06.271Z,253.12
2022-08-04T08:44:37.598Z,253.12
2022-08-04T08:45:33.005Z,247.50
2022-08-04T08:46:48.342Z,247.50
2022-08-04T08:48:06.375Z,247.50
2022-08-04T08:48:32.973Z,247.50
2022-08-04T08:50:01.194Z,247.50
2022-08-04T08:50:33.975Z,247.50
2022-08-04T08:51:32.943Z,247.50
2022-08-04T08:52:57.323Z,253.12
2022-08-04T08:53:32.930Z,253.12
2022-08-04T08:54:32.916Z,253.12
2022-08-04T08:55:32.912Z,253.12
2022-08-04T08:56:32.997Z,253.12
2022-08-04T08:57:32.885Z,253.12
2022-08-04T08:58:32.876Z,253.12
2022-08-04T08:59:32.869Z,253.12
2022-08-04T09:00:32.881Z,247.50
2022-08-04T09:01:32.906Z,247.50
2022-08-04T09:02:32.836Z,247.50
2022-08-04T09:03:32.832Z,247.50
2022-08-04T09:04:32.819Z,253.12
2022-08-04T09:05:32.813Z,253.12
2022-08-04T09:06:32.804Z,253.12
2022-08-04T09:07:32.797Z,247.50
2022-08-04T09:08:32.784Z,241.87
2022-08-04T09:09:32.773Z,241.87
2022-08-04T09:10:33.625Z,241.87
2022-08-04T09:11:32.756Z,241.87
2022-08-04T09:12:32.754Z,241.87
2022-08-04T09:13:32.733Z,241.87
2022-08-04T09:14:32.730Z,241.87
2022-08-04T09:15:32.720Z,241.87
2022-08-04T09:16:32.705Z,241.87
2022-08-04T09:17:32.699Z,241.87
2022-08-04T09:18:32.689Z,236.25
2022-08-04T09:19:38.623Z,236.25
2022-08-04T09:20:32.684Z,241.87
2022-08-04T09:21:32.679Z,241.87
2022-08-04T09:22:32.661Z,241.87
2022-08-04T09:23:32.643Z,241.87
2022-08-04T09:24:36.322Z,241.87
2022-08-04T09:25:32.625Z,241.87
2022-08-04T09:26:32.616Z,241.87
2022-08-04T09:27:32.608Z,241.87
2022-08-04T09:28:52.844Z,241.87
2022-08-04T09:29:32.589Z,241.87
2022-08-04T09:30:32.581Z,241.87
2022-08-04T09:31:48.769Z,247.50
2022-08-04T09:32:32.560Z,247.50
2022-08-04T09:33:45.712Z,247.50
2022-08-04T09:34:33.566Z,247.50
2022-08-04T09:35:32.532Z,247.50
2022-08-04T09:36:32.532Z,247.50
2022-08-04T09:37:32.516Z,247.50
2022-08-04T09:38:33.536Z,247.50
2022-08-04T09:39:32.601Z,247.50
2022-08-04T09:40:53.916Z,253.12
2022-08-04T09:41:48.053Z,253.12
2022-08-04T09:42:33.495Z,253.12
2022-08-04T09:43:59.403Z,253.12
2022-08-04T09:44:50.975Z,253.12
2022-08-04T09:45:43.293Z,253.12
2022-08-04T09:46:34.408Z,253.12
2022-08-04T09:47:40.211Z,258.75
2022-08-04T09:48:32.419Z,258.75
2022-08-04T09:49:32.409Z,258.75
2022-08-04T09:50:32.397Z,258.75
2022-08-04T09:51:58.207Z,258.75
2022-08-04T09:52:32.379Z,258.75
2022-08-04T09:53:32.373Z,264.37
2022-08-04T09:54:32.364Z,264.37
2022-08-04T09:55:32.355Z,264.37
2022-08-04T09:56:32.347Z,264.37
2022-08-04T09:57:32.338Z,264.37
2022-08-04T09:58:32.329Z,270.00
2022-08-04T09:59:32.318Z,270.00
2022-08-04T10:00:38.470Z,270.00
2022-08-04T10:01:33.328Z,270.00
2022-08-04T10:02:32.377Z,270.00
2022-08-04T10:03:32.346Z,275.62
2022-08-04T10:04:32.278Z,275.62
2022-08-04T10:05:32.268Z,275.62
2022-08-04T10:06:32.256Z,275.62
2022-08-04T10:07:32.247Z,275.62
2022-08-04T10:08:32.239Z,281.25
2022-08-04T10:09:32.231Z,281.25
2022-08-04T10:10:32.224Z,281.25
2022-08-04T10:11:32.214Z,286.87
2022-08-04T10:12:32.211Z,286.87
2022-08-04T10:13:32.194Z,286.87
2022-08-04T10:14:32.188Z,286.87
2022-08-04T10:15:32.178Z,286.87
2022-08-04T10:16:32.169Z,286.87
2022-08-04T10:17:32.160Z,286.87
2022-08-04T10:18:32.152Z,292.50
2022-08-04T10:19:32.144Z,292.50
2022-08-04T10:20:36.503Z,292.50
2022-08-04T10:21:33.145Z,292.50
2022-08-04T10:22:37.259Z,292.50
2022-08-04T10:23:32.106Z,298.12
2022-08-04T10:24:33.120Z,298.12
2022-08-04T10:26:03.538Z,298.12
2022-08-04T10:26:33.102Z,298.12
2022-08-04T10:27:32.078Z,303.75
2022-08-04T10:28:32.067Z,303.75
2022-08-04T10:29:32.062Z,309.37
2022-08-04T10:30:32.053Z,315.00
2022-08-04T10:31:32.045Z,320.62
2022-08-04T10:32:32.034Z,331.87
2022-08-04T10:33:32.021Z,331.87
2022-08-04T10:34:32.016Z,331.87
2022-08-04T10:35:32.007Z,337.50
2022-08-04T10:36:31.999Z,354.37
2022-08-04T10:37:59.430Z,360.00
2022-08-04T10:38:33.016Z,365.62
2022-08-04T10:39:42.831Z,388.12
2022-08-04T10:40:32.987Z,393.75
2022-08-04T10:41:31.962Z,393.75
2022-08-04T10:42:31.949Z,405.00
2022-08-04T10:43:31.938Z,405.00
2022-08-04T10:44:33.270Z,405.00
2022-08-04T10:45:32.944Z,399.37
2022-08-04T10:46:31.916Z,393.75
2022-08-04T10:47:31.903Z,393.75
2022-08-04T10:48:34.576Z,388.12
2022-08-04T10:49:31.890Z,393.75
2022-08-04T10:50:31.878Z,405.00
2022-08-04T10:51:31.871Z,405.00
2022-08-04T10:52:32.882Z,405.00
2022-08-04T10:53:31.851Z,410.62
2022-08-04T10:54:31.846Z,399.37
2022-08-04T10:56:07.922Z,399.37
2022-08-04T10:56:31.822Z,399.37
2022-08-04T10:57:32.516Z,421.87
2022-08-04T10:58:48.228Z,450.00
2022-08-04T10:59:32.821Z,444.37
2022-08-04T11:00:31.792Z,455.62
2022-08-04T11:01:59.439Z,438.75
2022-08-04T11:02:32.844Z,444.37
2022-08-04T11:03:31.766Z,455.62
2022-08-04T11:04:31.758Z,444.37
2022-08-04T11:05:31.749Z,455.62
2022-08-04T11:06:31.737Z,455.62
2022-08-04T11:07:31.728Z,455.62
2022-08-04T11:08:31.724Z,478.12
2022-08-04T11:09:31.711Z,506.25
2022-08-04T11:10:31.703Z,500.62
2022-08-04T11:11:31.697Z,489.37
2022-08-04T11:12:32.710Z,489.37
2022-08-04T11:13:31.678Z,511.87
2022-08-04T11:14:31.686Z,523.12
2022-08-04T11:15:31.757Z,528.75
2022-08-04T11:16:31.653Z,511.87
2022-08-04T11:17:31.641Z,528.75
2022-08-04T11:18:31.634Z,534.37
2022-08-04T11:19:45.143Z,523.12
2022-08-04T11:20:35.010Z,517.50
2022-08-04T11:21:31.605Z,528.75
2022-08-04T11:22:31.597Z,551.25
2022-08-04T11:23:31.589Z,556.87
2022-08-04T11:24:31.577Z,540.00
2022-08-04T11:25:31.575Z,551.25
2022-08-04T11:26:31.562Z,551.25
2022-08-04T11:27:31.556Z,540.00
2022-08-04T11:28:32.764Z,534.37
2022-08-04T11:29:31.534Z,534.37
2022-08-04T11:30:31.528Z,551.25
2022-08-04T11:31:31.515Z,568.12
2022-08-04T11:32:31.509Z,568.12
2022-08-04T11:33:31.506Z,596.25
2022-08-04T11:34:31.489Z,607.50
2022-08-04T11:35:31.482Z,590.62
2022-08-04T11:36:31.477Z,590.62
2022-08-04T11:37:31.465Z,590.62
2022-08-04T11:38:32.380Z,585.00
2022-08-04T11:39:31.487Z,601.87
2022-08-04T11:40:31.440Z,624.37
2022-08-04T11:41:31.431Z,630.00
2022-08-04T11:42:31.425Z,646.87
2022-08-04T11:43:56.268Z,658.12
2022-08-04T11:44:32.479Z,601.87
2022-08-04T11:45:31.402Z,596.25
2022-08-04T11:46:31.445Z,652.50
2022-08-04T11:47:31.383Z,641.25
2022-08-04T11:48:31.375Z,630.00
2022-08-04T11:49:31.367Z,663.75
2022-08-04T11:50:32.376Z,691.87
2022-08-04T11:51:31.352Z,669.37
2022-08-04T11:52:31.345Z,613.12
2022-08-04T11:53:36.613Z,686.25
2022-08-04T11:54:31.326Z,703.12
2022-08-04T11:55:31.317Z,691.87
2022-08-04T11:56:37.242Z,697.50
2022-08-04T11:57:35.741Z,703.12
2022-08-04T11:58:31.295Z,708.75
2022-08-04T11:59:31.286Z,725.62
2022-08-04T12:00:31.284Z,703.12
2022-08-04T12:01:31.267Z,720.00
2022-08-04T12:02:31.332Z,725.62
2022-08-04T12:03:31.254Z,731.25
2022-08-04T12:04:32.267Z,691.87
2022-08-04T12:05:35.687Z,703.12
2022-08-04T12:06:32.253Z,725.62
2022-08-04T12:07:32.463Z,731.25
2022-08-04T12:08:31.216Z,725.62
2022-08-04T12:09:31.208Z,759.37
2022-08-04T12:10:41.485Z,753.75
2022-08-04T12:11:31.187Z,725.62
2022-08-04T12:12:31.183Z,748.12
2022-08-04T12:13:31.172Z,736.87
2022-08-04T12:14:31.170Z,697.50
2022-08-04T12:15:31.159Z,736.87
2022-08-04T12:16:31.159Z,815.62
2022-08-04T12:17:31.158Z,832.50
2022-08-04T12:18:32.227Z,843.75
2022-08-04T12:19:45.225Z,793.12
2022-08-04T12:20:40.748Z,765.00
2022-08-04T12:21:32.170Z,765.00
2022-08-04T12:22:31.544Z,776.25
2022-08-04T12:23:31.096Z,753.75
2022-08-04T12:24:31.093Z,742.50
2022-08-04T12:25:31.079Z,725.62
2022-08-04T12:26:31.069Z,720.00
2022-08-04T12:27:31.073Z,736.87
2022-08-04T12:28:46.387Z,759.37
2022-08-04T12:29:32.066Z,770.62
2022-08-04T12:30:58.336Z,804.37
2022-08-04T12:31:31.033Z,832.50
2022-08-04T12:32:31.019Z,826.87
2022-08-04T12:34:02.717Z,815.62
2022-08-04T12:34:32.032Z,821.25
2022-08-04T12:35:30.997Z,810.00
2022-08-04T12:36:30.990Z,815.62
2022-08-04T12:37:30.983Z,832.50
2022-08-04T12:38:30.975Z,832.50
2022-08-04T12:39:30.992Z,855.00
2022-08-04T12:40:31.482Z,826.87
2022-08-04T12:41:30.951Z,793.12
2022-08-04T12:42:30.949Z,787.50
2022-08-04T12:43:30.937Z,838.12
2022-08-04T12:44:36.656Z,832.50
2022-08-04T12:45:30.918Z,804.37
2022-08-04T12:46:30.912Z,804.37
2022-08-04T12:47:30.905Z,787.50
2022-08-04T12:48:30.893Z,787.50
2022-08-04T12:49:30.889Z,826.87
2022-08-04T12:50:30.883Z,804.37
2022-08-04T12:52:07.689Z,860.62
2022-08-04T12:52:59.194Z,883.12
2022-08-04T12:53:32.654Z,894.37
2022-08-04T12:54:31.079Z,877.50
2022-08-04T12:55:30.840Z,810.00
2022-08-04T12:56:30.837Z,770.62
2022-08-04T12:57:30.828Z,776.25
2022-08-04T12:58:43.367Z,843.75
2022-08-04T12:59:31.836Z,916.87
2022-08-04T13:00:34.242Z,922.50
2022-08-04T13:02:08.382Z,905.62
2022-08-04T13:02:31.934Z,900.00
2022-08-04T13:03:30.783Z,905.62
2022-08-04T13:04:30.777Z,866.25
2022-08-04T13:05:30.773Z,826.87
2022-08-04T13:31:17.389Z,990.00
2022-08-04T13:31:18.804Z,995.62
2022-08-04T13:39:36.711Z,995.62
2022-08-04T13:39:38.219Z,995.62
2022-08-04T13:40:38.165Z,956.25
2022-08-04T13:41:38.156Z,1018.12
2022-08-04T13:42:38.151Z,1063.12
2022-08-04T13:44:16.395Z,1035.00
2022-08-04T13:46:16.350Z,1029.37
2022-08-04T13:46:28.236Z,1035.00
2022-08-04T14:07:05.851Z,1051.87
2022-08-04T14:07:20.572Z,1057.50
2022-08-04T14:08:13.228Z,1046.25
2022-08-04T15:46:44.826Z,939.37
2022-08-04T15:46:46.517Z,933.75
2022-08-04T15:47:49.938Z,933.75
2022-08-04T15:54:58.287Z,888.75
2022-08-04T15:55:00.006Z,888.75
2022-08-04T15:55:59.996Z,866.25
2022-08-04T16:00:24.733Z,883.12
2022-08-04T16:00:26.104Z,883.12
2022-08-04T16:01:26.133Z,905.62
2022-08-04T16:02:26.592Z,928.12
2022-08-04T16:03:57.776Z,939.37
2022-08-04T16:04:27.090Z,945.00
2022-08-04T16:05:26.064Z,894.37
2022-08-04T16:06:29.245Z,871.87
2022-08-04T16:13:08.681Z,928.12
2022-08-04T16:13:10.262Z,922.50
2022-08-04T16:14:10.117Z,922.50
2022-08-04T16:15:10.077Z,888.75
2022-08-04T16:16:36.365Z,832.50
2022-08-04T16:17:10.064Z,815.62
2022-08-04T16:18:14.522Z,826.87
2022-08-04T16:19:11.063Z,815.62
2022-08-04T16:20:10.041Z,826.87
2022-08-04T16:21:10.031Z,838.12
2022-08-04T16:22:10.027Z,855.00
2022-08-04T16:23:10.016Z,843.75
2022-08-04T16:24:10.013Z,821.25
2022-08-04T16:25:10.006Z,793.12
2022-08-04T16:26:09.994Z,770.62
2022-08-04T16:27:09.986Z,742.50
2022-08-04T16:28:09.984Z,736.87
2022-08-04T16:29:09.977Z,765.00
2022-08-04T16:30:14.100Z,776.25
2022-08-04T16:31:09.961Z,776.25
2022-08-04T16:32:09.952Z,793.12
2022-08-04T16:33:09.944Z,793.12
2022-08-04T16:34:47.738Z,776.25
2022-08-04T16:35:09.930Z,748.12
2022-08-04T16:36:10.534Z,720.00
2022-08-04T16:37:09.912Z,714.37
2022-08-04T16:38:09.907Z,703.12
2022-08-04T16:39:09.939Z,720.00
2022-08-04T16:40:09.889Z,708.75
2022-08-04T16:41:09.881Z,714.37
2022-08-04T16:42:09.870Z,703.12
2022-08-04T16:43:09.879Z,697.50
2022-08-04T16:44:09.853Z,708.75
2022-08-04T16:45:09.847Z,720.00
2022-08-04T16:46:18.675Z,691.87
2022-08-04T16:47:22.070Z,669.37
2022-08-04T16:48:10.851Z,652.50
2022-08-04T16:49:09.818Z,641.25
2022-08-04T16:50:09.809Z,618.75
2022-08-04T16:51:10.047Z,618.75
2022-08-04T16:52:13.677Z,641.25
2022-08-04T16:53:09.783Z,641.25
2022-08-04T16:54:09.773Z,635.62
2022-08-04T16:55:09.769Z,630.00
2022-08-04T16:56:09.761Z,618.75
2022-08-04T16:57:09.750Z,562.50
2022-08-04T16:58:09.743Z,556.87
2022-08-04T16:59:10.025Z,618.75
2022-08-04T17:00:09.726Z,601.87
2022-08-04T17:01:09.892Z,579.37
2022-08-04T17:02:09.886Z,585.00
2022-08-04T17:03:09.701Z,624.37
2022-08-04T17:04:09.695Z,585.00
2022-08-04T17:05:09.689Z,568.12
2022-08-04T17:06:09.678Z,568.12
2022-08-04T17:07:09.673Z,545.62
2022-08-04T17:08:30.457Z,517.50
2022-08-04T17:09:10.681Z,500.62
2022-08-04T17:10:09.650Z,528.75
2022-08-04T17:11:09.640Z,556.87
2022-08-04T17:12:09.631Z,551.25
2022-08-04T17:14:03.348Z,517.50
2022-08-04T17:14:10.634Z,500.62
2022-08-04T17:15:09.606Z,495.00
2022-08-04T17:16:13.657Z,472.50
2022-08-04T17:17:10.605Z,461.25
2022-08-04T17:18:09.579Z,478.12
2022-08-04T17:19:23.688Z,472.50
2022-08-04T17:20:10.581Z,450.00
2022-08-04T17:21:09.553Z,455.62
2022-08-04T17:22:10.333Z,450.00
2022-08-04T17:23:09.535Z,438.75
2022-08-04T17:24:16.401Z,427.50
2022-08-04T17:25:10.539Z,421.87
2022-08-04T17:26:09.508Z,427.50
2022-08-04T17:28:09.157Z,433.12
2022-08-04T17:28:24.730Z,410.62
2022-08-04T17:29:09.508Z,405.00
2022-08-04T17:30:09.473Z,393.75
2022-08-04T17:31:09.462Z,393.75
2022-08-04T17:32:09.467Z,388.12
2022-08-04T17:33:09.446Z,365.62
2022-08-04T17:34:14.139Z,365.62
2022-08-04T17:35:10.450Z,360.00
2022-08-04T17:36:09.418Z,354.37
2022-08-04T17:37:31.501Z,360.00
2022-08-04T17:38:09.402Z,365.62
2022-08-04T17:39:12.312Z,348.75
2022-08-04T17:41:18.108Z,320.62
2022-08-04T17:42:10.387Z,320.62
2022-08-04T17:44:03.468Z,326.25
2022-08-04T17:44:09.345Z,309.37
2022-08-04T17:45:39.594Z,298.12
2022-08-04T17:46:09.331Z,281.25
2022-08-04T17:47:12.506Z,275.62
2022-08-04T17:48:09.620Z,281.25
2022-08-04T17:49:09.301Z,270.00
2022-08-04T17:50:11.604Z,253.12
2022-08-04T17:51:09.285Z,225.00
2022-08-04T17:52:18.051Z,219.37
2022-08-04T17:53:12.274Z,202.50
2022-08-04T17:54:09.267Z,168.75
2022-08-04T17:55:16.263Z,146.25
2022-08-04T17:56:10.257Z,135.00
2022-08-04T17:57:09.228Z,129.37
2022-08-04T17:58:13.280Z,118.12
2022-08-04T17:59:09.210Z,112.50
2022-08-04T18:00:09.204Z,106.87
2022-08-04T18:01:24.128Z,106.87
2022-08-04T18:02:10.206Z,95.62
2022-08-04T18:03:09.271Z,101.25
2022-08-04T18:04:09.163Z,90.00
2022-08-04T18:05:11.518Z,67.50
2022-08-04T18:06:09.149Z,90.00
2022-08-04T18:07:24.467Z,101.25
2022-08-04T18:08:45.775Z,90.00
2022-08-04T18:09:22.937Z,67.50
2022-08-04T18:10:27.687Z,56.25
2022-08-04T18:11:10.122Z,45.00
2022-08-04T18:12:14.729Z,45.00
2022-08-04T18:13:14.153Z,39.37
2022-08-04T18:14:09.072Z,39.37
2022-08-04T18:15:09.067Z,33.75
2022-08-04T18:16:14.635Z,28.12
2022-08-04T18:17:17.893Z,28.12
2022-08-04T18:18:19.870Z,28.12
2022-08-04T18:19:10.044Z,28.12
2022-08-04T18:20:09.013Z,22.50
2022-08-04T18:21:09.004Z,22.50
2022-08-04T18:22:16.556Z,22.50
2022-08-04T18:23:08.987Z,22.50
2022-08-04T18:24:11.468Z,16.87
2022-08-04T18:25:08.965Z,16.87
2022-08-04T18:26:08.960Z,16.87
2022-08-04T18:27:08.948Z,16.87
2022-08-04T18:28:13.827Z,16.87
2022-08-04T18:29:21.717Z,11.25
2022-08-04T18:30:38.533Z,11.25
2022-08-04T18:31:09.927Z,11.25
2022-08-04T18:32:09.313Z,11.25
2022-08-04T18:33:37.563Z,11.25
2022-08-04T18:34:13.696Z,11.25
2022-08-04T18:35:09.894Z,11.25
2022-08-04T18:36:34.656Z,11.25
2022-08-04T18:38:05.263Z,5.62
2022-08-04T18:38:11.362Z,5.62
2022-08-04T18:39:11.992Z,5.62
2022-08-04T18:40:09.583Z,5.62
2022-08-04T18:41:09.249Z,5.62
2022-08-04T18:42:08.799Z,5.62
2022-08-04T18:43:08.791Z,5.62
2022-08-04T18:44:08.784Z,5.62
2022-08-04T18:45:08.770Z,5.62
2022-08-04T18:46:14.577Z,5.62
2022-08-04T18:47:22.055Z,5.62
2022-08-04T18:48:14.915Z,0.00
2022-08-04T18:49:08.728Z,0.00
2022-08-04T18:51:00.442Z,0.00
2022-08-04T18:51:24.217Z,0.00
2022-08-04T18:52:14.795Z,0.00